sensor_id;sensor_type;location;lat;lon;timestamp;P1;durP1;ratioP1;P2;durP2;ratioP2
22883;SDS011;13386;24.786;110.488;2022-08-03T00:00:11;20.33;;;10.60;;
22883;SDS011;13386;24.786;110.488;2022-08-03T00:02:43;21.40;;;10.07;;
22883;SDS011;13386;24.786;110.488;2022-08-03T00:05:14;21.27;;;10.30;;
22883;SDS011;13386;24.786;110.488;2022-08-03T00:07:44;23.88;;;10.60;;
22883;SDS011;13386;24.786;110.488;2022-08-03T00:10:15;19.13;;;10.13;;
22883;SDS011;13386;24.786;110.488;2022-08-03T00:12:48;24.45;;;10.45;;
22883;SDS011;13386;24.786;110.488;2022-08-03T00:15:19;19.13;;;10.55;;
22883;SDS011;13386;24.786;110.488;2022-08-03T00:17:50;22.45;;;10.80;;
22883;SDS011;13386;24.786;110.488;2022-08-03T00:20:21;22.02;;;11.32;;
22883;SDS011;13386;24.786;110.488;2022-08-03T00:22:52;21.33;;;11.18;;
22883;SDS011;13386;24.786;110.488;2022-08-03T00:25:23;24.67;;;10.75;;
22883;SDS011;13386;24.786;110.488;2022-08-03T00:27:55;20.20;;;10.55;;
22883;SDS011;13386;24.786;110.488;2022-08-03T00:30:26;22.05;;;10.98;;
22883;SDS011;13386;24.786;110.488;2022-08-03T00:32:57;20.85;;;10.52;;
22883;SDS011;13386;24.786;110.488;2022-08-03T00:35:29;19.10;;;9.80;;
22883;SDS011;13386;24.786;110.488;2022-08-03T00:37:59;20.08;;;10.43;;
22883;SDS011;13386;24.786;110.488;2022-08-03T00:40:30;21.17;;;10.52;;
22883;SDS011;13386;24.786;110.488;2022-08-03T00:43:03;21.67;;;10.38;;
22883;SDS011;13386;24.786;110.488;2022-08-03T00:45:35;23.02;;;10.50;;
22883;SDS011;13386;24.786;110.488;2022-08-03T00:48:06;24.88;;;10.50;;
22883;SDS011;13386;24.786;110.488;2022-08-03T00:50:38;18.85;;;9.90;;
22883;SDS011;13386;24.786;110.488;2022-08-03T00:53:10;18.48;;;9.65;;
22883;SDS011;13386;24.786;110.488;2022-08-03T00:55:41;18.27;;;9.32;;
22883;SDS011;13386;24.786;110.488;2022-08-03T00:58:14;22.20;;;10.15;;
22883;SDS011;13386;24.786;110.488;2022-08-03T01:00:45;18.67;;;9.88;;
22883;SDS011;13386;24.786;110.488;2022-08-03T01:03:16;19.25;;;9.77;;
22883;SDS011;13386;24.786;110.488;2022-08-03T01:05:50;17.17;;;9.40;;
22883;SDS011;13386;24.786;110.488;2022-08-03T01:10:52;20.92;;;9.57;;
22883;SDS011;13386;24.786;110.488;2022-08-03T01:13:26;18.40;;;9.13;;
22883;SDS011;13386;24.786;110.488;2022-08-03T01:15:59;20.25;;;9.10;;
22883;SDS011;13386;24.786;110.488;2022-08-03T01:18:35;24.02;;;8.98;;
22883;SDS011;13386;24.786;110.488;2022-08-03T01:21:08;22.23;;;8.88;;
22883;SDS011;13386;24.786;110.488;2022-08-03T01:23:51;17.85;;;8.63;;
22883;SDS011;13386;24.786;110.488;2022-08-03T01:31:58;18.67;;;8.77;;
22883;SDS011;13386;24.786;110.488;2022-08-03T01:34:31;16.13;;;8.32;;
22883;SDS011;13386;24.786;110.488;2022-08-03T01:37:04;16.90;;;8.38;;
22883;SDS011;13386;24.786;110.488;2022-08-03T01:39:35;18.15;;;8.27;;
22883;SDS011;13386;24.786;110.488;2022-08-03T01:42:07;21.35;;;8.23;;
22883;SDS011;13386;24.786;110.488;2022-08-03T01:44:39;17.00;;;8.40;;
22883;SDS011;13386;24.786;110.488;2022-08-03T01:47:12;16.08;;;8.15;;
22883;SDS011;13386;24.786;110.488;2022-08-03T01:49:45;17.27;;;7.90;;
22883;SDS011;13386;24.786;110.488;2022-08-03T01:52:17;14.63;;;7.55;;
22883;SDS011;13386;24.786;110.488;2022-08-03T01:54:51;13.83;;;7.80;;
22883;SDS011;13386;24.786;110.488;2022-08-03T01:57:22;17.05;;;7.65;;
22883;SDS011;13386;24.786;110.488;2022-08-03T01:59:55;15.23;;;7.00;;
22883;SDS011;13386;24.786;110.488;2022-08-03T02:02:29;18.50;;;7.70;;
22883;SDS011;13386;24.786;110.488;2022-08-03T02:05:01;17.20;;;7.75;;
22883;SDS011;13386;24.786;110.488;2022-08-03T02:07:32;13.93;;;6.97;;
22883;SDS011;13386;24.786;110.488;2022-08-03T02:10:04;16.35;;;7.65;;
22883;SDS011;13386;24.786;110.488;2022-08-03T02:12:35;19.35;;;7.53;;
22883;SDS011;13386;24.786;110.488;2022-08-03T02:15:09;12.68;;;7.03;;
22883;SDS011;13386;24.786;110.488;2022-08-03T02:17:44;17.10;;;7.50;;
22883;SDS011;13386;24.786;110.488;2022-08-03T02:20:16;17.25;;;7.47;;
22883;SDS011;13386;24.786;110.488;2022-08-03T02:22:47;17.23;;;6.95;;
22883;SDS011;13386;24.786;110.488;2022-08-03T02:25:18;15.73;;;6.75;;
22883;SDS011;13386;24.786;110.488;2022-08-03T02:27:54;20.00;;;7.18;;
22883;SDS011;13386;24.786;110.488;2022-08-03T02:30:38;16.98;;;6.93;;
22883;SDS011;13386;24.786;110.488;2022-08-03T02:33:13;13.65;;;6.38;;
22883;SDS011;13386;24.786;110.488;2022-08-03T02:35:46;12.60;;;6.07;;
22883;SDS011;13386;24.786;110.488;2022-08-03T02:38:19;14.23;;;5.97;;
22883;SDS011;13386;24.786;110.488;2022-08-03T02:41:00;14.55;;;6.20;;
22883;SDS011;13386;24.786;110.488;2022-08-03T02:43:33;16.52;;;7.10;;
22883;SDS011;13386;24.786;110.488;2022-08-03T02:46:05;16.58;;;6.97;;
22883;SDS011;13386;24.786;110.488;2022-08-03T02:48:39;14.63;;;6.47;;
22883;SDS011;13386;24.786;110.488;2022-08-03T02:51:11;13.82;;;6.50;;
22883;SDS011;13386;24.786;110.488;2022-08-03T02:53:43;13.95;;;7.10;;
22883;SDS011;13386;24.786;110.488;2022-08-03T02:56:15;16.55;;;6.47;;
22883;SDS011;13386;24.786;110.488;2022-08-03T02:58:47;12.70;;;6.18;;
22883;SDS011;13386;24.786;110.488;2022-08-03T03:01:19;13.73;;;5.93;;
22883;SDS011;13386;24.786;110.488;2022-08-03T03:03:53;14.52;;;6.30;;
22883;SDS011;13386;24.786;110.488;2022-08-03T03:06:24;11.05;;;5.40;;
22883;SDS011;13386;24.786;110.488;2022-08-03T03:08:56;11.30;;;5.85;;
22883;SDS011;13386;24.786;110.488;2022-08-03T03:11:28;9.77;;;4.88;;
22883;SDS011;13386;24.786;110.488;2022-08-03T03:14:02;10.30;;;4.90;;
22883;SDS011;13386;24.786;110.488;2022-08-03T03:16:33;11.57;;;5.28;;
22883;SDS011;13386;24.786;110.488;2022-08-03T03:19:07;9.88;;;5.22;;
22883;SDS011;13386;24.786;110.488;2022-08-03T03:21:39;13.45;;;5.35;;
22883;SDS011;13386;24.786;110.488;2022-08-03T03:24:11;11.50;;;5.20;;
22883;SDS011;13386;24.786;110.488;2022-08-03T03:26:45;9.68;;;4.65;;
22883;SDS011;13386;24.786;110.488;2022-08-03T03:29:16;8.80;;;5.10;;
22883;SDS011;13386;24.786;110.488;2022-08-03T03:31:48;11.98;;;5.20;;
22883;SDS011;13386;24.786;110.488;2022-08-03T03:34:20;13.88;;;5.18;;
22883;SDS011;13386;24.786;110.488;2022-08-03T03:36:51;10.07;;;5.03;;
22883;SDS011;13386;24.786;110.488;2022-08-03T03:39:24;9.02;;;4.82;;
22883;SDS011;13386;24.786;110.488;2022-08-03T03:41:55;11.60;;;5.20;;
22883;SDS011;13386;24.786;110.488;2022-08-03T03:44:26;13.93;;;5.00;;
22883;SDS011;13386;24.786;110.488;2022-08-03T03:46:57;9.82;;;4.70;;
22883;SDS011;13386;24.786;110.488;2022-08-03T03:49:30;8.85;;;4.78;;
22883;SDS011;13386;24.786;110.488;2022-08-03T03:52:01;11.68;;;4.38;;
22883;SDS011;13386;24.786;110.488;2022-08-03T03:54:40;11.43;;;4.80;;
22883;SDS011;13386;24.786;110.488;2022-08-03T03:57:13;12.43;;;5.10;;
22883;SDS011;13386;24.786;110.488;2022-08-03T03:59:44;14.57;;;4.90;;
22883;SDS011;13386;24.786;110.488;2022-08-03T04:02:14;10.30;;;4.88;;
22883;SDS011;13386;24.786;110.488;2022-08-03T04:04:47;6.57;;;4.28;;
22883;SDS011;13386;24.786;110.488;2022-08-03T04:07:40;10.40;;;4.75;;
22883;SDS011;13386;24.786;110.488;2022-08-03T04:10:30;9.18;;;4.95;;
22883;SDS011;13386;24.786;110.488;2022-08-03T04:13:22;8.75;;;4.65;;
22883;SDS011;13386;24.786;110.488;2022-08-03T04:15:53;10.35;;;5.18;;
22883;SDS011;13386;24.786;110.488;2022-08-03T04:18:27;9.18;;;5.05;;
22883;SDS011;13386;24.786;110.488;2022-08-03T04:21:01;8.05;;;4.80;;
22883;SDS011;13386;24.786;110.488;2022-08-03T04:23:34;9.43;;;4.43;;
22883;SDS011;13386;24.786;110.488;2022-08-03T04:26:06;8.90;;;4.63;;
22883;SDS011;13386;24.786;110.488;2022-08-03T04:28:38;7.32;;;4.30;;
22883;SDS011;13386;24.786;110.488;2022-08-03T04:31:13;9.45;;;4.68;;
22883;SDS011;13386;24.786;110.488;2022-08-03T04:33:45;9.93;;;4.80;;
22883;SDS011;13386;24.786;110.488;2022-08-03T04:36:28;12.25;;;4.55;;
22883;SDS011;13386;24.786;110.488;2022-08-03T04:39:01;8.50;;;4.78;;
22883;SDS011;13386;24.786;110.488;2022-08-03T04:41:33;9.20;;;4.75;;
22883;SDS011;13386;24.786;110.488;2022-08-03T04:44:05;7.75;;;4.68;;
22883;SDS011;13386;24.786;110.488;2022-08-03T04:46:40;8.60;;;3.90;;
22883;SDS011;13386;24.786;110.488;2022-08-03T04:49:13;8.93;;;4.22;;
22883;SDS011;13386;24.786;110.488;2022-08-03T04:54:35;7.30;;;4.40;;
22883;SDS011;13386;24.786;110.488;2022-08-03T04:57:11;6.78;;;4.07;;
22883;SDS011;13386;24.786;110.488;2022-08-03T04:59:49;9.00;;;4.70;;
22883;SDS011;13386;24.786;110.488;2022-08-03T05:02:20;9.73;;;4.30;;
22883;SDS011;13386;24.786;110.488;2022-08-03T05:04:55;11.02;;;4.80;;
22883;SDS011;13386;24.786;110.488;2022-08-03T05:07:26;10.15;;;4.40;;
22883;SDS011;13386;24.786;110.488;2022-08-03T05:10:08;11.68;;;4.40;;
22883;SDS011;13386;24.786;110.488;2022-08-03T05:12:39;11.63;;;5.15;;
22883;SDS011;13386;24.786;110.488;2022-08-03T05:15:20;9.18;;;4.93;;
22883;SDS011;13386;24.786;110.488;2022-08-03T05:17:51;9.45;;;5.20;;
22883;SDS011;13386;24.786;110.488;2022-08-03T05:20:21;9.95;;;5.20;;
22883;SDS011;13386;24.786;110.488;2022-08-03T05:22:54;8.93;;;4.80;;
22883;SDS011;13386;24.786;110.488;2022-08-03T05:25:27;10.45;;;5.30;;
22883;SDS011;13386;24.786;110.488;2022-08-03T05:27:59;8.73;;;5.10;;
22883;SDS011;13386;24.786;110.488;2022-08-03T05:30:30;9.70;;;5.18;;
22883;SDS011;13386;24.786;110.488;2022-08-03T05:33:01;9.23;;;5.18;;
22883;SDS011;13386;24.786;110.488;2022-08-03T05:35:32;9.48;;;5.03;;
22883;SDS011;13386;24.786;110.488;2022-08-03T05:38:05;10.73;;;5.80;;
22883;SDS011;13386;24.786;110.488;2022-08-03T05:40:40;11.48;;;6.05;;
22883;SDS011;13386;24.786;110.488;2022-08-03T05:43:15;9.25;;;4.85;;
22883;SDS011;13386;24.786;110.488;2022-08-03T05:45:45;7.65;;;4.75;;
22883;SDS011;13386;24.786;110.488;2022-08-03T05:48:18;12.60;;;5.15;;
22883;SDS011;13386;24.786;110.488;2022-08-03T05:50:52;8.73;;;5.13;;
22883;SDS011;13386;24.786;110.488;2022-08-03T05:53:24;8.88;;;5.20;;
22883;SDS011;13386;24.786;110.488;2022-08-03T05:55:58;9.70;;;5.05;;
22883;SDS011;13386;24.786;110.488;2022-08-03T05:58:29;9.20;;;5.25;;
22883;SDS011;13386;24.786;110.488;2022-08-03T06:01:03;9.23;;;4.93;;
22883;SDS011;13386;24.786;110.488;2022-08-03T06:03:34;9.23;;;5.18;;
22883;SDS011;13386;24.786;110.488;2022-08-03T06:06:07;10.27;;;5.10;;
22883;SDS011;13386;24.786;110.488;2022-08-03T06:08:38;15.23;;;5.15;;
22883;SDS011;13386;24.786;110.488;2022-08-03T06:11:11;9.48;;;4.22;;
22883;SDS011;13386;24.786;110.488;2022-08-03T06:13:52;7.82;;;4.57;;
22883;SDS011;13386;24.786;110.488;2022-08-03T06:16:28;12.10;;;4.35;;
22883;SDS011;13386;24.786;110.488;2022-08-03T06:19:01;10.50;;;4.78;;
22883;SDS011;13386;24.786;110.488;2022-08-03T06:21:32;9.18;;;4.68;;
22883;SDS011;13386;24.786;110.488;2022-08-03T06:24:03;9.65;;;4.38;;
22883;SDS011;13386;24.786;110.488;2022-08-03T06:26:40;7.50;;;4.38;;
22883;SDS011;13386;24.786;110.488;2022-08-03T06:29:11;8.27;;;4.32;;
22883;SDS011;13386;24.786;110.488;2022-08-03T06:31:43;8.63;;;4.45;;
22883;SDS011;13386;24.786;110.488;2022-08-03T06:34:15;7.82;;;4.35;;
22883;SDS011;13386;24.786;110.488;2022-08-03T06:37:02;9.02;;;4.10;;
22883;SDS011;13386;24.786;110.488;2022-08-03T06:39:33;8.95;;;4.15;;
22883;SDS011;13386;24.786;110.488;2022-08-03T06:42:06;7.22;;;3.63;;
22883;SDS011;13386;24.786;110.488;2022-08-03T06:44:38;9.55;;;3.70;;
22883;SDS011;13386;24.786;110.488;2022-08-03T06:47:13;7.10;;;3.53;;
22883;SDS011;13386;24.786;110.488;2022-08-03T06:49:43;6.57;;;3.80;;
22883;SDS011;13386;24.786;110.488;2022-08-03T06:52:17;6.65;;;3.80;;
22883;SDS011;13386;24.786;110.488;2022-08-03T06:54:59;7.25;;;3.70;;
22883;SDS011;13386;24.786;110.488;2022-08-03T06:57:36;9.50;;;3.88;;
22883;SDS011;13386;24.786;110.488;2022-08-03T07:00:11;7.17;;;3.90;;
22883;SDS011;13386;24.786;110.488;2022-08-03T07:02:42;10.68;;;4.40;;
22883;SDS011;13386;24.786;110.488;2022-08-03T07:05:14;12.82;;;5.18;;
22883;SDS011;13386;24.786;110.488;2022-08-03T07:07:45;12.40;;;5.47;;
22883;SDS011;13386;24.786;110.488;2022-08-03T07:10:18;11.93;;;5.57;;
22883;SDS011;13386;24.786;110.488;2022-08-03T07:12:52;10.65;;;5.40;;
22883;SDS011;13386;24.786;110.488;2022-08-03T07:15:24;11.15;;;5.30;;
22883;SDS011;13386;24.786;110.488;2022-08-03T07:17:55;13.73;;;5.10;;
22883;SDS011;13386;24.786;110.488;2022-08-03T07:20:29;11.27;;;5.10;;
22883;SDS011;13386;24.786;110.488;2022-08-03T07:23:00;8.60;;;4.93;;
22883;SDS011;13386;24.786;110.488;2022-08-03T07:25:31;10.73;;;5.20;;
22883;SDS011;13386;24.786;110.488;2022-08-03T07:28:11;9.15;;;4.65;;
22883;SDS011;13386;24.786;110.488;2022-08-03T07:30:42;9.23;;;4.80;;
22883;SDS011;13386;24.786;110.488;2022-08-03T07:33:13;8.30;;;4.90;;
22883;SDS011;13386;24.786;110.488;2022-08-03T07:35:50;9.43;;;5.00;;
22883;SDS011;13386;24.786;110.488;2022-08-03T07:38:21;9.60;;;4.90;;
22883;SDS011;13386;24.786;110.488;2022-08-03T07:40:52;10.88;;;5.40;;
22883;SDS011;13386;24.786;110.488;2022-08-03T07:43:28;14.98;;;5.88;;
22883;SDS011;13386;24.786;110.488;2022-08-03T07:46:00;12.88;;;6.20;;
22883;SDS011;13386;24.786;110.488;2022-08-03T07:48:31;13.98;;;5.45;;
22883;SDS011;13386;24.786;110.488;2022-08-03T07:53:36;14.35;;;5.70;;
22883;SDS011;13386;24.786;110.488;2022-08-03T07:56:07;9.73;;;5.50;;
22883;SDS011;13386;24.786;110.488;2022-08-03T07:58:40;12.65;;;5.65;;
22883;SDS011;13386;24.786;110.488;2022-08-03T08:01:13;10.95;;;5.13;;
22883;SDS011;13386;24.786;110.488;2022-08-03T08:03:45;12.45;;;5.05;;
22883;SDS011;13386;24.786;110.488;2022-08-03T08:06:18;13.32;;;4.90;;
22883;SDS011;13386;24.786;110.488;2022-08-03T08:08:49;9.25;;;5.00;;
22883;SDS011;13386;24.786;110.488;2022-08-03T08:11:20;11.43;;;5.07;;
22883;SDS011;13386;24.786;110.488;2022-08-03T08:13:52;10.00;;;5.00;;
22883;SDS011;13386;24.786;110.488;2022-08-03T08:16:24;7.40;;;4.80;;
22883;SDS011;13386;24.786;110.488;2022-08-03T08:18:56;9.90;;;5.80;;
22883;SDS011;13386;24.786;110.488;2022-08-03T08:21:28;13.27;;;5.15;;
22883;SDS011;13386;24.786;110.488;2022-08-03T08:24:00;8.98;;;5.00;;
22883;SDS011;13386;24.786;110.488;2022-08-03T08:26:31;12.90;;;5.43;;
22883;SDS011;13386;24.786;110.488;2022-08-03T08:29:05;9.38;;;5.13;;
22883;SDS011;13386;24.786;110.488;2022-08-03T08:31:35;13.85;;;5.05;;
22883;SDS011;13386;24.786;110.488;2022-08-03T08:34:07;14.60;;;5.18;;
22883;SDS011;13386;24.786;110.488;2022-08-03T08:36:38;11.40;;;4.85;;
22883;SDS011;13386;24.786;110.488;2022-08-03T08:39:13;11.48;;;5.00;;
22883;SDS011;13386;24.786;110.488;2022-08-03T08:41:44;10.80;;;4.80;;
22883;SDS011;13386;24.786;110.488;2022-08-03T08:44:19;9.32;;;4.70;;
22883;SDS011;13386;24.786;110.488;2022-08-03T08:46:50;8.40;;;5.03;;
22883;SDS011;13386;24.786;110.488;2022-08-03T08:49:22;12.40;;;5.10;;
22883;SDS011;13386;24.786;110.488;2022-08-03T08:51:56;14.73;;;5.53;;
22883;SDS011;13386;24.786;110.488;2022-08-03T08:54:31;14.82;;;5.90;;
22883;SDS011;13386;24.786;110.488;2022-08-03T08:57:03;10.40;;;5.55;;
22883;SDS011;13386;24.786;110.488;2022-08-03T08:59:37;11.35;;;5.38;;
22883;SDS011;13386;24.786;110.488;2022-08-03T09:02:09;12.20;;;5.63;;
22883;SDS011;13386;24.786;110.488;2022-08-03T09:04:41;9.90;;;5.63;;
22883;SDS011;13386;24.786;110.488;2022-08-03T09:07:14;11.45;;;5.53;;
22883;SDS011;13386;24.786;110.488;2022-08-03T09:09:46;12.52;;;5.85;;
22883;SDS011;13386;24.786;110.488;2022-08-03T09:12:18;15.55;;;5.65;;
22883;SDS011;13386;24.786;110.488;2022-08-03T09:14:51;9.05;;;5.40;;
22883;SDS011;13386;24.786;110.488;2022-08-03T09:17:21;11.55;;;5.70;;
22883;SDS011;13386;24.786;110.488;2022-08-03T09:20:03;10.48;;;5.60;;
22883;SDS011;13386;24.786;110.488;2022-08-03T09:22:35;9.50;;;4.90;;
22883;SDS011;13386;24.786;110.488;2022-08-03T09:25:26;9.05;;;5.00;;
22883;SDS011;13386;24.786;110.488;2022-08-03T09:28:06;9.10;;;5.32;;
22883;SDS011;13386;24.786;110.488;2022-08-03T09:30:41;11.05;;;4.97;;
22883;SDS011;13386;24.786;110.488;2022-08-03T09:33:13;12.45;;;5.70;;
22883;SDS011;13386;24.786;110.488;2022-08-03T09:35:47;11.30;;;4.87;;
22883;SDS011;13386;24.786;110.488;2022-08-03T09:38:30;17.10;;;6.07;;
22883;SDS011;13386;24.786;110.488;2022-08-03T09:41:01;11.00;;;4.80;;
22883;SDS011;13386;24.786;110.488;2022-08-03T09:43:33;9.90;;;4.88;;
22883;SDS011;13386;24.786;110.488;2022-08-03T09:46:24;9.63;;;4.70;;
22883;SDS011;13386;24.786;110.488;2022-08-03T09:49:10;11.55;;;5.35;;
22883;SDS011;13386;24.786;110.488;2022-08-03T09:51:41;9.95;;;4.90;;
22883;SDS011;13386;24.786;110.488;2022-08-03T09:54:12;11.60;;;5.18;;
22883;SDS011;13386;24.786;110.488;2022-08-03T09:56:55;9.23;;;5.03;;
22883;SDS011;13386;24.786;110.488;2022-08-03T09:59:26;8.60;;;4.95;;
22883;SDS011;13386;24.786;110.488;2022-08-03T10:01:59;9.98;;;5.00;;
22883;SDS011;13386;24.786;110.488;2022-08-03T10:04:35;14.10;;;5.10;;
22883;SDS011;13386;24.786;110.488;2022-08-03T10:07:22;9.77;;;5.45;;
22883;SDS011;13386;24.786;110.488;2022-08-03T10:09:54;10.23;;;4.80;;
22883;SDS011;13386;24.786;110.488;2022-08-03T10:12:25;9.90;;;5.03;;
22883;SDS011;13386;24.786;110.488;2022-08-03T10:14:56;11.43;;;4.72;;
22883;SDS011;13386;24.786;110.488;2022-08-03T10:17:29;11.60;;;4.95;;
22883;SDS011;13386;24.786;110.488;2022-08-03T10:20:02;9.73;;;5.10;;
22883;SDS011;13386;24.786;110.488;2022-08-03T10:22:35;10.10;;;5.18;;
22883;SDS011;13386;24.786;110.488;2022-08-03T10:25:07;12.23;;;5.78;;
22883;SDS011;13386;24.786;110.488;2022-08-03T10:27:38;13.55;;;5.78;;
22883;SDS011;13386;24.786;110.488;2022-08-03T10:30:11;12.98;;;5.88;;
22883;SDS011;13386;24.786;110.488;2022-08-03T10:32:45;11.88;;;5.65;;
22883;SDS011;13386;24.786;110.488;2022-08-03T10:35:19;22.52;;;7.43;;
22883;SDS011;13386;24.786;110.488;2022-08-03T10:37:51;15.13;;;5.60;;
22883;SDS011;13386;24.786;110.488;2022-08-03T10:40:26;50.33;;;12.48;;
22883;SDS011;13386;24.786;110.488;2022-08-03T10:42:58;15.48;;;6.05;;
22883;SDS011;13386;24.786;110.488;2022-08-03T10:45:33;13.40;;;5.75;;
22883;SDS011;13386;24.786;110.488;2022-08-03T10:48:07;29.85;;;8.43;;
22883;SDS011;13386;24.786;110.488;2022-08-03T10:50:39;70.25;;;13.18;;
22883;SDS011;13386;24.786;110.488;2022-08-03T10:53:10;14.40;;;6.38;;
22883;SDS011;13386;24.786;110.488;2022-08-03T10:55:41;15.07;;;6.38;;
22883;SDS011;13386;24.786;110.488;2022-08-03T10:58:47;16.55;;;7.18;;
22883;SDS011;13386;24.786;110.488;2022-08-03T11:01:18;16.55;;;7.20;;
22883;SDS011;13386;24.786;110.488;2022-08-03T11:06:40;16.73;;;8.05;;
22883;SDS011;13386;24.786;110.488;2022-08-03T11:09:14;18.10;;;7.90;;
22883;SDS011;13386;24.786;110.488;2022-08-03T11:11:49;16.33;;;7.72;;
22883;SDS011;13386;24.786;110.488;2022-08-03T11:14:21;14.95;;;7.25;;
22883;SDS011;13386;24.786;110.488;2022-08-03T11:17:04;13.77;;;6.35;;
22883;SDS011;13386;24.786;110.488;2022-08-03T11:22:08;15.05;;;5.78;;
22883;SDS011;13386;24.786;110.488;2022-08-03T11:27:41;11.55;;;5.70;;
22883;SDS011;13386;24.786;110.488;2022-08-03T11:30:23;14.35;;;5.57;;
22883;SDS011;13386;24.786;110.488;2022-08-03T11:32:58;11.70;;;5.68;;
22883;SDS011;13386;24.786;110.488;2022-08-03T11:35:30;11.98;;;5.35;;
22883;SDS011;13386;24.786;110.488;2022-08-03T11:38:04;12.38;;;5.60;;
22883;SDS011;13386;24.786;110.488;2022-08-03T11:40:36;13.68;;;5.65;;
22883;SDS011;13386;24.786;110.488;2022-08-03T11:43:08;10.23;;;5.10;;
22883;SDS011;13386;24.786;110.488;2022-08-03T11:45:54;12.65;;;5.50;;
22883;SDS011;13386;24.786;110.488;2022-08-03T11:48:26;11.77;;;5.80;;
22883;SDS011;13386;24.786;110.488;2022-08-03T11:50:57;12.13;;;5.45;;
22883;SDS011;13386;24.786;110.488;2022-08-03T11:53:33;14.18;;;5.63;;
22883;SDS011;13386;24.786;110.488;2022-08-03T11:56:07;11.90;;;6.30;;
22883;SDS011;13386;24.786;110.488;2022-08-03T11:58:44;10.30;;;5.30;;
22883;SDS011;13386;24.786;110.488;2022-08-03T12:01:17;13.80;;;6.18;;
22883;SDS011;13386;24.786;110.488;2022-08-03T12:03:48;15.20;;;6.03;;
22883;SDS011;13386;24.786;110.488;2022-08-03T12:06:22;12.43;;;6.10;;
22883;SDS011;13386;24.786;110.488;2022-08-03T12:08:55;12.60;;;5.95;;
22883;SDS011;13386;24.786;110.488;2022-08-03T12:11:26;11.40;;;5.65;;
22883;SDS011;13386;24.786;110.488;2022-08-03T12:14:01;11.07;;;6.00;;
22883;SDS011;13386;24.786;110.488;2022-08-03T12:16:32;12.38;;;5.72;;
22883;SDS011;13386;24.786;110.488;2022-08-03T12:19:04;13.27;;;5.82;;
22883;SDS011;13386;24.786;110.488;2022-08-03T12:21:45;10.93;;;5.75;;
22883;SDS011;13386;24.786;110.488;2022-08-03T12:24:21;11.32;;;5.32;;
22883;SDS011;13386;24.786;110.488;2022-08-03T12:26:54;12.93;;;5.95;;
22883;SDS011;13386;24.786;110.488;2022-08-03T12:29:31;11.35;;;5.47;;
22883;SDS011;13386;24.786;110.488;2022-08-03T12:32:02;13.30;;;5.82;;
22883;SDS011;13386;24.786;110.488;2022-08-03T12:37:19;13.80;;;6.13;;
22883;SDS011;13386;24.786;110.488;2022-08-03T12:39:59;15.23;;;6.03;;
22883;SDS011;13386;24.786;110.488;2022-08-03T12:42:32;17.23;;;6.70;;
22883;SDS011;13386;24.786;110.488;2022-08-03T12:45:18;14.65;;;6.10;;
22883;SDS011;13386;24.786;110.488;2022-08-03T12:47:53;15.82;;;6.10;;
22883;SDS011;13386;24.786;110.488;2022-08-03T12:50:25;16.48;;;5.78;;
22883;SDS011;13386;24.786;110.488;2022-08-03T12:52:57;16.90;;;6.22;;
22883;SDS011;13386;24.786;110.488;2022-08-03T12:55:33;11.32;;;5.82;;
22883;SDS011;13386;24.786;110.488;2022-08-03T12:58:05;18.77;;;6.22;;
22883;SDS011;13386;24.786;110.488;2022-08-03T13:03:08;21.95;;;7.05;;
22883;SDS011;13386;24.786;110.488;2022-08-03T13:05:43;14.60;;;6.80;;
22883;SDS011;13386;24.786;110.488;2022-08-03T13:08:19;17.27;;;7.28;;
22883;SDS011;13386;24.786;110.488;2022-08-03T13:10:52;15.68;;;6.90;;
22883;SDS011;13386;24.786;110.488;2022-08-03T13:13:37;16.67;;;6.90;;
22883;SDS011;13386;24.786;110.488;2022-08-03T13:16:13;19.60;;;7.75;;
22883;SDS011;13386;24.786;110.488;2022-08-03T13:18:46;25.83;;;8.20;;
22883;SDS011;13386;24.786;110.488;2022-08-03T13:21:19;15.85;;;7.78;;
22883;SDS011;13386;24.786;110.488;2022-08-03T13:23:53;16.80;;;7.20;;
22883;SDS011;13386;24.786;110.488;2022-08-03T13:26:28;17.27;;;7.57;;
22883;SDS011;13386;24.786;110.488;2022-08-03T13:28:59;16.45;;;7.30;;
22883;SDS011;13386;24.786;110.488;2022-08-03T13:31:30;16.85;;;7.68;;
22883;SDS011;13386;24.786;110.488;2022-08-03T13:34:02;16.58;;;8.40;;
22883;SDS011;13386;24.786;110.488;2022-08-03T13:36:34;15.82;;;7.90;;
22883;SDS011;13386;24.786;110.488;2022-08-03T13:39:10;17.70;;;7.93;;
22883;SDS011;13386;24.786;110.488;2022-08-03T13:41:44;18.80;;;8.55;;
22883;SDS011;13386;24.786;110.488;2022-08-03T13:44:15;16.67;;;7.75;;
22883;SDS011;13386;24.786;110.488;2022-08-03T13:46:48;16.90;;;8.35;;
22883;SDS011;13386;24.786;110.488;2022-08-03T13:49:19;17.30;;;8.07;;
22883;SDS011;13386;24.786;110.488;2022-08-03T13:51:51;16.15;;;8.18;;
22883;SDS011;13386;24.786;110.488;2022-08-03T13:54:26;22.35;;;8.18;;
22883;SDS011;13386;24.786;110.488;2022-08-03T13:57:03;18.25;;;8.63;;
22883;SDS011;13386;24.786;110.488;2022-08-03T13:59:36;21.50;;;8.00;;
22883;SDS011;13386;24.786;110.488;2022-08-03T14:02:08;18.27;;;8.43;;
22883;SDS011;13386;24.786;110.488;2022-08-03T14:04:39;18.55;;;8.20;;
22883;SDS011;13386;24.786;110.488;2022-08-03T14:07:10;17.80;;;7.90;;
22883;SDS011;13386;24.786;110.488;2022-08-03T14:09:41;17.10;;;7.97;;
22883;SDS011;13386;24.786;110.488;2022-08-03T14:12:14;16.65;;;8.10;;
22883;SDS011;13386;24.786;110.488;2022-08-03T14:14:50;19.55;;;8.40;;
22883;SDS011;13386;24.786;110.488;2022-08-03T14:17:22;20.58;;;7.78;;
22883;SDS011;13386;24.786;110.488;2022-08-03T14:19:53;20.98;;;8.52;;
22883;SDS011;13386;24.786;110.488;2022-08-03T14:22:24;19.52;;;8.45;;
22883;SDS011;13386;24.786;110.488;2022-08-03T14:24:55;20.45;;;8.55;;
22883;SDS011;13386;24.786;110.488;2022-08-03T14:27:31;19.60;;;8.50;;
22883;SDS011;13386;24.786;110.488;2022-08-03T14:30:05;23.83;;;8.68;;
22883;SDS011;13386;24.786;110.488;2022-08-03T14:32:37;21.08;;;8.35;;
22883;SDS011;13386;24.786;110.488;2022-08-03T14:35:09;22.50;;;9.30;;
22883;SDS011;13386;24.786;110.488;2022-08-03T14:37:42;19.55;;;8.98;;
22883;SDS011;13386;24.786;110.488;2022-08-03T14:40:13;23.52;;;8.93;;
22883;SDS011;13386;24.786;110.488;2022-08-03T14:42:46;21.92;;;8.80;;
22883;SDS011;13386;24.786;110.488;2022-08-03T14:45:17;17.25;;;9.00;;
22883;SDS011;13386;24.786;110.488;2022-08-03T14:47:52;20.13;;;8.48;;
22883;SDS011;13386;24.786;110.488;2022-08-03T14:50:26;23.95;;;8.73;;
22883;SDS011;13386;24.786;110.488;2022-08-03T14:53:07;19.05;;;8.38;;
22883;SDS011;13386;24.786;110.488;2022-08-03T14:55:40;18.45;;;7.68;;
22883;SDS011;13386;24.786;110.488;2022-08-03T14:58:17;20.20;;;8.07;;
22883;SDS011;13386;24.786;110.488;2022-08-03T15:01:04;19.98;;;8.10;;
22883;SDS011;13386;24.786;110.488;2022-08-03T15:03:36;20.60;;;8.60;;
22883;SDS011;13386;24.786;110.488;2022-08-03T15:06:10;18.65;;;8.18;;
22883;SDS011;13386;24.786;110.488;2022-08-03T15:08:45;15.25;;;7.93;;
22883;SDS011;13386;24.786;110.488;2022-08-03T15:11:19;20.40;;;8.35;;
22883;SDS011;13386;24.786;110.488;2022-08-03T15:13:54;16.15;;;7.47;;